sensor_id;sensor_type;location;lat;lon;timestamp;P1;durP1;ratioP1;P2;durP2;ratioP2
55346;SDS011;41218;55.700;38.270;2023-08-06T04:24:11;15.43;;;10.05;;
55346;SDS011;41218;55.700;38.270;2023-08-06T04:29:11;14.43;;;9.98;;
55346;SDS011;41218;55.700;38.270;2023-08-06T04:34:11;13.13;;;9.30;;
55346;SDS011;41218;55.700;38.270;2023-08-06T04:39:12;13.10;;;9.65;;
55346;SDS011;41218;55.700;38.270;2023-08-06T04:44:13;11.18;;;9.20;;
55346;SDS011;41218;55.700;38.270;2023-08-06T04:49:13;12.80;;;8.57;;
55346;SDS011;41218;55.700;38.270;2023-08-06T04:54:14;11.52;;;8.75;;
55346;SDS011;41218;55.700;38.270;2023-08-06T04:59:14;11.95;;;9.35;;
55346;SDS011;41218;55.700;38.270;2023-08-06T05:04:15;12.95;;;8.77;;
55346;SDS011;41218;55.700;38.270;2023-08-06T05:09:15;13.13;;;9.07;;
55346;SDS011;41218;55.700;38.270;2023-08-06T05:14:16;10.63;;;8.73;;
55346;SDS011;41218;55.700;38.270;2023-08-06T05:19:16;15.27;;;8.60;;
55346;SDS011;41218;55.700;38.270;2023-08-06T05:24:17;12.38;;;8.80;;
55346;SDS011;41218;55.700;38.270;2023-08-06T05:29:17;13.23;;;8.90;;
55346;SDS011;41218;55.700;38.270;2023-08-06T05:34:18;10.43;;;8.15;;
55346;SDS011;41218;55.700;38.270;2023-08-06T05:39:18;14.27;;;9.07;;
55346;SDS011;41218;55.700;38.270;2023-08-06T05:44:19;13.00;;;8.85;;
55346;SDS011;41218;55.700;38.270;2023-08-06T05:49:19;11.75;;;8.10;;
55346;SDS011;41218;55.700;38.270;2023-08-06T05:54:20;10.75;;;8.07;;
55346;SDS011;41218;55.700;38.270;2023-08-06T05:59:20;9.02;;;7.90;;
55346;SDS011;41218;55.700;38.270;2023-08-06T06:04:21;10.82;;;8.18;;
55346;SDS011;41218;55.700;38.270;2023-08-06T06:09:21;14.88;;;8.95;;
55346;SDS011;41218;55.700;38.270;2023-08-06T06:14:22;12.27;;;8.50;;
55346;SDS011;41218;55.700;38.270;2023-08-06T06:19:23;14.02;;;9.43;;
55346;SDS011;41218;55.700;38.270;2023-08-06T06:24:23;13.02;;;8.30;;
55346;SDS011;41218;55.700;38.270;2023-08-06T06:29:24;13.50;;;8.80;;
55346;SDS011;41218;55.700;38.270;2023-08-06T06:34:24;10.88;;;9.10;;
55346;SDS011;41218;55.700;38.270;2023-08-06T06:39:25;10.93;;;8.73;;
55346;SDS011;41218;55.700;38.270;2023-08-06T06:44:25;10.82;;;8.40;;
55346;SDS011;41218;55.700;38.270;2023-08-06T06:49:26;10.40;;;8.55;;
55346;SDS011;41218;55.700;38.270;2023-08-06T06:54:26;10.40;;;7.53;;
55346;SDS011;41218;55.700;38.270;2023-08-06T06:59:27;13.88;;;8.23;;
55346;SDS011;41218;55.700;38.270;2023-08-06T07:04:27;12.27;;;7.90;;
55346;SDS011;41218;55.700;38.270;2023-08-06T07:09:28;10.10;;;7.75;;
55346;SDS011;41218;55.700;38.270;2023-08-06T07:14:29;10.38;;;7.65;;
55346;SDS011;41218;55.700;38.270;2023-08-06T07:19:29;11.50;;;7.28;;
55346;SDS011;41218;55.700;38.270;2023-08-06T07:24:30;12.50;;;7.93;;
55346;SDS011;41218;55.700;38.270;2023-08-06T07:29:30;10.57;;;7.95;;
55346;SDS011;41218;55.700;38.270;2023-08-06T07:34:31;12.82;;;7.68;;
55346;SDS011;41218;55.700;38.270;2023-08-06T07:39:31;12.07;;;7.75;;
55346;SDS011;41218;55.700;38.270;2023-08-06T07:44:41;10.05;;;7.55;;
55346;SDS011;41218;55.700;38.270;2023-08-06T07:49:41;10.73;;;7.10;;
55346;SDS011;41218;55.700;38.270;2023-08-06T07:54:42;10.02;;;6.80;;
55346;SDS011;41218;55.700;38.270;2023-08-06T07:59:42;8.50;;;6.57;;
55346;SDS011;41218;55.700;38.270;2023-08-06T08:04:43;8.43;;;7.15;;
55346;SDS011;41218;55.700;38.270;2023-08-06T08:09:43;17.20;;;7.40;;
55346;SDS011;41218;55.700;38.270;2023-08-06T08:14:44;8.75;;;7.30;;
55346;SDS011;41218;55.700;38.270;2023-08-06T08:19:45;9.55;;;7.15;;
55346;SDS011;41218;55.700;38.270;2023-08-06T08:24:46;11.85;;;6.63;;
55346;SDS011;41218;55.700;38.270;2023-08-06T08:29:46;13.07;;;7.10;;
55346;SDS011;41218;55.700;38.270;2023-08-06T08:34:47;11.40;;;7.13;;
55346;SDS011;41218;55.700;38.270;2023-08-06T08:39:47;9.63;;;6.97;;
55346;SDS011;41218;55.700;38.270;2023-08-06T08:44:48;9.15;;;6.25;;
55346;SDS011;41218;55.700;38.270;2023-08-06T08:49:48;12.23;;;6.57;;
55346;SDS011;41218;55.700;38.270;2023-08-06T08:54:52;9.55;;;6.47;;
55346;SDS011;41218;55.700;38.270;2023-08-06T08:59:53;8.48;;;6.50;;
55346;SDS011;41218;55.700;38.270;2023-08-06T09:04:53;11.80;;;6.65;;
55346;SDS011;41218;55.700;38.270;2023-08-06T09:09:56;10.93;;;6.70;;
55346;SDS011;41218;55.700;38.270;2023-08-06T09:14:58;12.23;;;6.47;;
55346;SDS011;41218;55.700;38.270;2023-08-06T09:19:58;8.52;;;6.50;;
55346;SDS011;41218;55.700;38.270;2023-08-06T09:24:59;10.38;;;7.32;;
55346;SDS011;41218;55.700;38.270;2023-08-06T09:29:59;7.97;;;6.20;;
55346;SDS011;41218;55.700;38.270;2023-08-06T09:35:00;9.48;;;6.90;;
55346;SDS011;41218;55.700;38.270;2023-08-06T09:40:00;11.50;;;6.40;;
55346;SDS011;41218;55.700;38.270;2023-08-06T09:45:07;7.25;;;6.55;;
55346;SDS011;41218;55.700;38.270;2023-08-06T09:50:17;10.05;;;6.72;;
55346;SDS011;41218;55.700;38.270;2023-08-06T09:55:18;9.63;;;6.07;;
55346;SDS011;41218;55.700;38.270;2023-08-06T10:00:20;8.27;;;7.22;;
55346;SDS011;41218;55.700;38.270;2023-08-06T10:05:22;10.18;;;7.03;;
55346;SDS011;41218;55.700;38.270;2023-08-06T10:10:24;9.98;;;7.13;;
55346;SDS011;41218;55.700;38.270;2023-08-06T10:15:27;10.60;;;6.97;;
55346;SDS011;41218;55.700;38.270;2023-08-06T10:20:36;7.95;;;6.88;;
55346;SDS011;41218;55.700;38.270;2023-08-06T10:25:40;9.30;;;7.40;;
55346;SDS011;41218;55.700;38.270;2023-08-06T10:30:46;8.82;;;7.07;;
55346;SDS011;41218;55.700;38.270;2023-08-06T10:35:47;7.75;;;6.85;;
55346;SDS011;41218;55.700;38.270;2023-08-06T10:45:53;8.23;;;7.38;;
55346;SDS011;41218;55.700;38.270;2023-08-06T10:50:54;7.63;;;6.60;;
55346;SDS011;41218;55.700;38.270;2023-08-06T10:55:56;8.10;;;6.88;;
55346;SDS011;41218;55.700;38.270;2023-08-06T11:00:57;7.20;;;6.50;;
55346;SDS011;41218;55.700;38.270;2023-08-06T11:12:18;8.63;;;6.90;;
55346;SDS011;41218;55.700;38.270;2023-08-06T11:17:18;11.13;;;7.00;;
55346;SDS011;41218;55.700;38.270;2023-08-06T11:22:22;7.85;;;7.05;;
55346;SDS011;41218;55.700;38.270;2023-08-06T11:27:23;7.63;;;6.82;;
55346;SDS011;41218;55.700;38.270;2023-08-06T11:32:26;8.00;;;6.90;;
55346;SDS011;41218;55.700;38.270;2023-08-06T11:37:28;11.27;;;6.90;;
55346;SDS011;41218;55.700;38.270;2023-08-06T11:42:30;7.50;;;6.70;;
55346;SDS011;41218;55.700;38.270;2023-08-06T11:47:31;7.57;;;6.88;;
55346;SDS011;41218;55.700;38.270;2023-08-06T11:52:32;8.52;;;6.70;;
55346;SDS011;41218;55.700;38.270;2023-08-06T11:57:32;8.90;;;6.90;;
55346;SDS011;41218;55.700;38.270;2023-08-06T12:02:35;8.75;;;6.47;;
55346;SDS011;41218;55.700;38.270;2023-08-06T12:07:49;8.63;;;7.00;;
55346;SDS011;41218;55.700;38.270;2023-08-06T12:12:52;11.63;;;7.38;;
55346;SDS011;41218;55.700;38.270;2023-08-06T12:17:53;10.02;;;7.05;;
55346;SDS011;41218;55.700;38.270;2023-08-06T12:22:53;8.25;;;6.85;;
55346;SDS011;41218;55.700;38.270;2023-08-06T12:27:54;9.77;;;7.45;;
55346;SDS011;41218;55.700;38.270;2023-08-06T12:32:54;9.13;;;7.30;;
55346;SDS011;41218;55.700;38.270;2023-08-06T12:37:55;8.65;;;7.50;;
55346;SDS011;41218;55.700;38.270;2023-08-06T12:42:57;11.90;;;7.13;;
55346;SDS011;41218;55.700;38.270;2023-08-06T12:47:59;8.27;;;6.50;;
55346;SDS011;41218;55.700;38.270;2023-08-06T12:59:16;7.75;;;7.03;;
55346;SDS011;41218;55.700;38.270;2023-08-06T13:04:17;9.50;;;7.00;;
55346;SDS011;41218;55.700;38.270;2023-08-06T13:09:17;9.13;;;6.93;;
55346;SDS011;41218;55.700;38.270;2023-08-06T13:14:19;7.20;;;6.47;;
55346;SDS011;41218;55.700;38.270;2023-08-06T13:19:19;7.28;;;6.50;;
55346;SDS011;41218;55.700;38.270;2023-08-06T13:24:20;7.32;;;6.50;;
55346;SDS011;41218;55.700;38.270;2023-08-06T13:29:20;11.52;;;7.00;;
55346;SDS011;41218;55.700;38.270;2023-08-06T13:34:21;8.80;;;7.13;;
55346;SDS011;41218;55.700;38.270;2023-08-06T13:39:21;8.82;;;6.85;;
55346;SDS011;41218;55.700;38.270;2023-08-06T13:44:22;8.27;;;6.80;;
55346;SDS011;41218;55.700;38.270;2023-08-06T13:49:22;8.32;;;6.78;;
55346;SDS011;41218;55.700;38.270;2023-08-06T13:54:23;7.85;;;6.95;;
55346;SDS011;41218;55.700;38.270;2023-08-06T13:59:23;7.60;;;6.57;;
55346;SDS011;41218;55.700;38.270;2023-08-06T14:04:24;8.68;;;7.13;;
55346;SDS011;41218;55.700;38.270;2023-08-06T14:09:25;8.27;;;6.53;;
55346;SDS011;41218;55.700;38.270;2023-08-06T14:14:25;8.07;;;6.95;;
55346;SDS011;41218;55.700;38.270;2023-08-06T14:24:37;8.50;;;7.30;;
55346;SDS011;41218;55.700;38.270;2023-08-06T14:42:09;8.52;;;7.03;;
55346;SDS011;41218;55.700;38.270;2023-08-06T14:47:10;9.30;;;7.43;;
55346;SDS011;41218;55.700;38.270;2023-08-06T14:57:34;9.45;;;6.57;;
55346;SDS011;41218;55.700;38.270;2023-08-06T15:02:35;7.32;;;6.55;;
55346;SDS011;41218;55.700;38.270;2023-08-06T15:07:35;7.82;;;6.35;;
55346;SDS011;41218;55.700;38.270;2023-08-06T15:12:37;7.70;;;6.53;;
55346;SDS011;41218;55.700;38.270;2023-08-06T15:17:39;8.52;;;6.50;;
55346;SDS011;41218;55.700;38.270;2023-08-06T15:22:40;8.18;;;7.38;;
55346;SDS011;41218;55.700;38.270;2023-08-06T15:27:41;7.35;;;6.65;;
55346;SDS011;41218;55.700;38.270;2023-08-06T15:32:41;7.85;;;7.05;;
55346;SDS011;41218;55.700;38.270;2023-08-06T15:37:44;10.73;;;7.40;;
55346;SDS011;41218;55.700;38.270;2023-08-06T15:42:45;12.38;;;6.72;;
55346;SDS011;41218;55.700;38.270;2023-08-06T16:27:06;9.30;;;6.72;;
55346;SDS011;41218;55.700;38.270;2023-08-06T16:32:49;8.90;;;7.53;;
55346;SDS011;41218;55.700;38.270;2023-08-06T16:38:49;8.57;;;6.45;;
55346;SDS011;41218;55.700;38.270;2023-08-06T16:50:08;10.55;;;6.88;;
55346;SDS011;41218;55.700;38.270;2023-08-06T17:02:10;7.93;;;6.78;;
55346;SDS011;41218;55.700;38.270;2023-08-06T17:08:12;7.72;;;6.60;;
55346;SDS011;41218;55.700;38.270;2023-08-06T17:13:48;7.68;;;6.97;;
55346;SDS011;41218;55.700;38.270;2023-08-06T17:19:33;7.53;;;6.63;;
55346;SDS011;41218;55.700;38.270;2023-08-06T17:25:08;7.18;;;6.43;;
55346;SDS011;41218;55.700;38.270;2023-08-06T17:30:38;7.65;;;6.80;;
55346;SDS011;41218;55.700;38.270;2023-08-06T17:36:14;7.82;;;6.80;;
55346;SDS011;41218;55.700;38.270;2023-08-06T17:47:32;7.40;;;6.65;;
55346;SDS011;41218;55.700;38.270;2023-08-06T18:16:06;9.07;;;6.57;;
55346;SDS011;41218;55.700;38.270;2023-08-06T18:34:43;7.93;;;6.75;;
55346;SDS011;41218;55.700;38.270;2023-08-06T18:40:57;9.30;;;6.50;;
55346;SDS011;41218;55.700;38.270;2023-08-06T18:46:47;7.25;;;6.55;;
55346;SDS011;41218;55.700;38.270;2023-08-06T18:58:31;7.63;;;6.90;;
55346;SDS011;41218;55.700;38.270;2023-08-06T19:04:49;9.13;;;7.07;;
55346;SDS011;41218;55.700;38.270;2023-08-06T19:10:49;7.60;;;6.80;;
55346;SDS011;41218;55.700;38.270;2023-08-06T19:35:49;7.85;;;7.05;;
55346;SDS011;41218;55.700;38.270;2023-08-06T19:55:24;7.78;;;6.97;;
55346;SDS011;41218;55.700;38.270;2023-08-06T20:06:43;7.85;;;7.05;;
55346;SDS011;41218;55.700;38.270;2023-08-06T20:11:43;9.88;;;7.50;;
55346;SDS011;41218;55.700;38.270;2023-08-06T20:16:44;8.75;;;7.32;;
55346;SDS011;41218;55.700;38.270;2023-08-06T20:21:44;9.73;;;7.07;;
55346;SDS011;41218;55.700;38.270;2023-08-06T20:26:45;9.80;;;7.22;;
55346;SDS011;41218;55.700;38.270;2023-08-06T20:31:46;10.18;;;7.78;;
55346;SDS011;41218;55.700;38.270;2023-08-06T20:36:46;9.80;;;7.35;;
55346;SDS011;41218;55.700;38.270;2023-08-06T20:41:47;11.05;;;7.28;;
55346;SDS011;41218;55.700;38.270;2023-08-06T20:46:47;10.57;;;7.55;;
55346;SDS011;41218;55.700;38.270;2023-08-06T20:51:48;9.40;;;7.22;;
55346;SDS011;41218;55.700;38.270;2023-08-06T20:56:48;9.02;;;7.53;;
55346;SDS011;41218;55.700;38.270;2023-08-06T21:01:49;10.13;;;7.45;;
55346;SDS011;41218;55.700;38.270;2023-08-06T21:06:49;9.57;;;7.70;;
55346;SDS011;41218;55.700;38.270;2023-08-06T21:11:50;8.82;;;7.60;;
55346;SDS011;41218;55.700;38.270;2023-08-06T21:16:50;8.25;;;7.40;;
55346;SDS011;41218;55.700;38.270;2023-08-06T21:21:51;9.45;;;7.90;;
55346;SDS011;41218;55.700;38.270;2023-08-06T21:26:51;8.73;;;7.22;;
55346;SDS011;41218;55.700;38.270;2023-08-06T21:31:52;8.02;;;7.22;;
55346;SDS011;41218;55.700;38.270;2023-08-06T21:36:52;9.90;;;7.75;;
55346;SDS011;41218;55.700;38.270;2023-08-06T21:41:54;8.38;;;7.47;;
55346;SDS011;41218;55.700;38.270;2023-08-06T21:46:55;8.45;;;7.32;;
55346;SDS011;41218;55.700;38.270;2023-08-06T21:51:55;12.18;;;8.20;;
55346;SDS011;41218;55.700;38.270;2023-08-06T21:56:58;9.27;;;7.60;;
55346;SDS011;41218;55.700;38.270;2023-08-06T22:01:58;9.10;;;7.47;;
55346;SDS011;41218;55.700;38.270;2023-08-06T22:06:59;11.48;;;7.85;;
55346;SDS011;41218;55.700;38.270;2023-08-06T22:11:59;8.50;;;7.60;;
55346;SDS011;41218;55.700;38.270;2023-08-06T22:17:00;8.85;;;7.90;;
55346;SDS011;41218;55.700;38.270;2023-08-06T22:22:00;7.82;;;7.03;;
55346;SDS011;41218;55.700;38.270;2023-08-06T22:27:01;8.52;;;7.30;;
55346;SDS011;41218;55.700;38.270;2023-08-06T22:32:02;9.68;;;8.05;;
55346;SDS011;41218;55.700;38.270;2023-08-06T22:37:03;8.90;;;7.97;;
55346;SDS011;41218;55.700;38.270;2023-08-06T22:42:04;9.85;;;7.72;;
55346;SDS011;41218;55.700;38.270;2023-08-06T22:47:05;9.00;;;7.97;;
55346;SDS011;41218;55.700;38.270;2023-08-06T22:52:07;10.20;;;8.07;;
55346;SDS011;41218;55.700;38.270;2023-08-06T22:57:08;9.63;;;7.75;;
55346;SDS011;41218;55.700;38.270;2023-08-06T23:02:08;8.80;;;7.90;;
55346;SDS011;41218;55.700;38.270;2023-08-06T23:07:09;8.60;;;7.60;;
55346;SDS011;41218;55.700;38.270;2023-08-06T23:12:10;9.30;;;8.00;;
55346;SDS011;41218;55.700;38.270;2023-08-06T23:17:10;9.55;;;7.88;;
55346;SDS011;41218;55.700;38.270;2023-08-06T23:22:11;9.45;;;7.93;;
55346;SDS011;41218;55.700;38.270;2023-08-06T23:27:11;11.02;;;8.38;;
55346;SDS011;41218;55.700;38.270;2023-08-06T23:32:12;10.68;;;8.18;;
55346;SDS011;41218;55.700;38.270;2023-08-06T23:37:12;11.68;;;8.35;;
55346;SDS011;41218;55.700;38.270;2023-08-06T23:42:13;10.15;;;7.55;;
55346;SDS011;41218;55.700;38.270;2023-08-06T23:47:13;9.27;;;7.95;;
55346;SDS011;41218;55.700;38.270;2023-08-06T23:52:14;8.05;;;7.25;;
55346;SDS011;41218;55.700;38.270;2023-08-06T23:57:14;9.43;;;7.85;;
